Tiempo atmosférico en la estación meteorológica de Bañobárez, Salamanca (748 m.)



Fecha
DESCASC
Temp. máxima en grados centígrados (hora)
DESCASC
Temp. mínima en grados centígrados (hora)
DESCASC
Temp. media en grados centígrados
DESCASC
Racha de viento máxima en m/sg (hora)
DESCASC
Velocidad máxima media en intervalos de 10 minutos(hora)
DESCASC
Precipitaciones diarias en mm
DESCASC
Precipitaciones de 00:00 a 06:00 en mm
DESCASC
Precipitaciones de 06:00 a 12:00 en mm
DESCASC
Precipitaciones de 12:00 a 18:00 en mm
DESCASC
Precipitaciones de 18:00 a 24:00 en mm
DESCASC
29-03-2020 16.1 (15:10) 2.1 (08:40) 9.1 4.17 (14:40) 2.78 (04:50) 0 0 0 0 0
28-03-2020 15.2 (17:20) -0.4 (02:50) 7.4 7.5 (12:40) 4.44 (11:20) 0 0 0 0 0
27-03-2020 11.5 (17:10) 1.2 (07:30) 6.4 10.28 (04:50) 6.39 (11:50) 0 0 0 0 0
26-03-2020 16.2 (17:50) 1.7 (00:00) 9 6.11 (18:00) 3.89 (21:10) 0 0 0 0 0
25-03-2020 17.5 (16:30) 3.7 (00:00) 10.6 9.17 (12:40) 5.28 (15:00) 0 0 0 0 0
24-03-2020 15.8 (17:30) 4.1 (00:00) 10 9.17 (13:20) 6.11 (12:30) 0 0 0 0 0
23-03-2020 14.8 (16:40) 2.3 (00:00) 8.6 12.5 (17:40) 6.94 (17:40) 0.4 0 0 0.4 0
22-03-2020 13.1 (18:00) 1.4 (02:10) 7.3 6.94 (15:20) 4.17 (15:40) 3.8 0 0.2 0 3.6
21-03-2020 8.8 (18:30) 2.4 (00:00) 5.6 7.22 (10:20) 4.44 (10:50) 7 2.4 3 1.6 0
20-03-2020 11 (16:10) 8.2 (00:00) 9.6 8.61 (21:10) 5.56 (21:10) 14.2 0 3.8 3.6 6.8
19-03-2020 15.3 (14:30) 5.9 (00:00) 10.6 5.28 (22:10) 3.33 (22:10) 0 0 0 0 0
18-03-2020 16.9 (16:50) 5.6 (00:00) 11.2 9.17 (11:00) 5.28 (08:40) 0 0 0 0 0
17-03-2020 13.8 (18:30) 4.3 (00:00) 9.1 14.72 (01:50) 8.61 (01:50) 0 0 0 0 0
16-03-2020 7.5 (18:30) 1.1 (00:00) 4.3 12.5 (03:00) 7.22 (03:00) 2.6 0 0.2 1.6 0.8
15-03-2020 15.6 (13:10) 0.9 (00:00) 8.3 13.33 (14:10) 8.89 (14:10) 1.2 0 0 0 1.2
14-03-2020 18.3 (17:00) 3.8 (00:00) 11 5.28 (11:10) 3.89 (07:50) 0 0 0 0 0
13-03-2020 15.1 (17:40) 6.5 (05:20) 10.8 7.78 (09:00) 5.28 (09:20) 0 0 0 0 0
12-03-2020 20.5 (14:40) 8.6 (00:00) 14.6 5.28 (14:20) 3.61 (13:10) 0 0 0 0 0
11-03-2020 23.6 (15:50) 5.4 (00:00) 14.5 4.72 (16:20) 3.06 (02:10) 0 0 0 0 0
10-03-2020 21.4 (16:40) 3.7 (00:00) 12.5 6.11 (16:40) 3.89 (16:30) 0 0 0 0 0
09-03-2020 14.3 (17:10) 2.3 (00:00) 8.3 6.39 (10:30) 3.89 (10:30) 0 0 0 0 0
08-03-2020 11.1 (18:00) 1.3 (00:00) 6.2 5.56 (20:10) 3.61 (20:10) 0 0 0 0 0
07-03-2020 14 (17:40) 1.6 (00:00) 7.8 7.78 (00:40) 5 (00:50) 0 0 0 0 0
06-03-2020 10.4 (16:40) 4.4 (00:00) 7.4 12.78 (14:00) 8.33 (18:30) 1.2 1.2 0 0 0
05-03-2020 11.7 (15:40) 4.8 (00:00) 8.3 16.39 (07:40) 9.72 (08:30) 4.2 1.2 3 0 0
04-03-2020 13.3 (16:10) 9.2 (07:20) 11.3 9.72 (00:30) 5.28 (03:20) 0.8 0.8 0 0 0
03-03-2020 13.9 (16:20) 4.3 (00:00) 9.1 16.11 (15:00) 9.17 (11:30) 0 0 0 0 0
02-03-2020 11 (03:20) 4 (00:00) 7.5 22.22 (07:00) 12.5 (04:20) 4.4 3.2 0.8 0.4 0
01-03-2020 13.7 (15:50) 6.4 (00:00) 10 17.22 (22:50) 10 (23:20) 11.6 0.6 3.8 0 7.2
29-02-2020 11.1 (14:30) 4.8 (00:00) 8 16.39 (15:50) 9.17 (15:50) 3.2 0 3.2 0 0

Gráficas

Temp. máximas Temp. mínimas Temp. medias Precipitaciones Rachas de viento máximas Velocidades máximas media en intervalos de 10 minutos

Datos horarios

Fecha y hora oficial Temperatura (ºC) Velocidad del viento (km/h) Dirección del viento Racha (km/h) Dirección de racha Precipitación (mm) Presión (hPa) Tendencia (hPa) Humedad (%)
2020-03-29 23:00:00 9.6 2 Sudeste 3 Sudeste 0 -- -- 73
2020-03-29 22:00:00 11.2 0 Calma 3 Sur 0 -- -- 69
2020-03-29 21:00:00 12.6 0 Calma 3 Nordeste 0 -- -- 71
2020-03-29 20:00:00 14.5 0 Calma 6 Nordeste 0 -- -- 57
2020-03-29 19:00:00 15.1 4 Nordeste 9 Nordeste 0 -- -- 47
2020-03-29 18:00:00 15.9 4 Sudeste 10 Norte 0 -- -- 42
2020-03-29 17:00:00 16 4 Norte 8 Noroeste 0 -- -- 47
2020-03-29 16:00:00 15.5 3 Sudeste 13 Sudeste 0 -- -- 44
2020-03-29 15:00:00 15.6 4 Nordeste 15 Sudeste 0 -- -- 44
2020-03-29 14:00:00 14.7 6 Nordeste 15 Nordeste 0 -- -- 51
2020-03-29 13:00:00 14 3 Oeste 9 Oeste 0 -- -- 49
2020-03-29 12:00:00 13.2 3 Norte 6 Sudoeste 0 -- -- 59
2020-03-29 11:00:00 11.6 2 Sudeste 7 Sudeste 0 -- -- 63
2020-03-29 10:00:00 7.5 4 Este 6 Este 0 -- -- 78
2020-03-29 09:00:00 2.7 4 Este 6 Este 0 -- -- 87
2020-03-29 08:00:00 3.2 6 Sur 12 Sur 0 -- -- 82
2020-03-29 07:00:00 2.5 5 Sur 7 Sur 0 -- -- 84
2020-03-29 06:00:00 3.8 0 Calma 12 Sur 0 -- -- 79
2020-03-29 05:00:00 4.5 10 Sur 12 Sur 0 -- -- 76
2020-03-29 03:00:00 5.1 6 Sur 9 Sur 0 -- -- 73
2020-03-29 01:00:00 5.5 6 Sur 8 Sur 0 -- -- 72
2020-03-29 00:00:00 6.2 5 Sur 8 Sur 0 -- -- 70
2020-03-28 23:00:00 7.2 5 Sur 9 Sudoeste 0 -- -- 67
2020-03-28 22:00:00 6.5 5 Sur 8 Sudoeste 0 -- -- 72
2020-03-28 21:00:00 8 7 Sur 17 Sur 0 -- -- 68
2020-03-28 20:00:00 9.6 0 Calma 2 Este 0 -- -- 62
2020-03-28 19:00:00 14.6 2 Norte 9 Este 0 -- -- 46
2020-03-28 18:00:00 14.5 6 Este 12 Este 0 -- -- 43
2020-03-28 17:00:00 14.2 3 Norte 12 Nordeste 0 -- -- 44
2020-03-28 16:00:00 14.2 4 Norte 15 Nordeste 0 -- -- 43
2020-03-28 15:00:00 14.2 4 Sur 24 Este 0 -- -- 42
2020-03-28 14:00:00 13.2 9 Este 26 Este 0 -- -- 43
2020-03-28 13:00:00 12.2 13 Este 27 Este 0 -- -- 49
2020-03-28 12:00:00 11.4 13 Este 27 Este 0 -- -- 56
2020-03-28 11:00:00 9.6 14 Este 22 Este 0 -- -- 58
2020-03-28 10:00:00 7.9 13 Este 20 Este 0 -- -- 63
2020-03-28 09:00:00 4.8 6 Este 10 Este 0 -- -- 77
2020-03-28 08:00:00 1.2 3 Sudeste 8 Este 0 -- -- 88
2020-03-28 07:00:00 0.4 7 Este 10 Este 0 -- -- 89
2020-03-28 06:00:00 0.5 7 Este 9 Este 0 -- -- 91
2020-03-28 05:00:00 0.1 6 Sudeste 9 Este 0 -- -- 92
2020-03-28 04:00:00 -0.1 6 Este 9 Este 0 -- -- 92
2020-03-28 03:00:00 -0.3 0 Calma 2 Sur 0 -- -- 92
2020-03-28 02:00:00 0.1 0 Calma 3 Norte 0 -- -- 88
2020-03-28 01:00:00 1.8 2 Noroeste 10 Sur 0 -- -- 84
2020-03-28 00:00:00 3.1 8 Sur 10 Sur 0 -- -- 81
2020-03-27 23:00:00 3.9 8 Sur 11 Sur 0 -- -- 79
2020-03-27 22:00:00 4.8 7 Sur 11 Sur 0 -- -- 76
2020-03-27 21:00:00 5.9 6 Sur 13 Sudeste 0 -- -- 72
2020-03-27 20:00:00 7.3 4 Este 19 Este 0 -- -- 64
2020-03-27 19:00:00 10.6 14 Este 24 Este 0 -- -- 49
2020-03-27 18:00:00 11.5 10 Este 26 Nordeste 0 -- -- 45
2020-03-27 17:00:00 11.4 11 Nordeste 31 Este 0 -- -- 40
2020-03-27 16:00:00 10.9 15 Este 33 Este 0 -- -- 34
2020-03-27 15:00:00 10.1 15 Este 32 Este 0 -- -- 41
2020-03-27 14:00:00 9.4 18 Este 31 Este 0 -- -- 47
2020-03-27 13:00:00 8 19 Nordeste 32 Este 0 -- -- 54
2020-03-27 12:00:00 6.8 21 Este 32 Este 0 -- -- 51
2020-03-27 11:00:00 5.4 17 Este 31 Nordeste 0 -- -- 60
2020-03-27 10:00:00 4.2 18 Este 30 Este 0 -- -- 64
2020-03-27 09:00:00 2.6 20 Este 32 Este 0 -- -- 70
2020-03-27 08:00:00 1.5 10 Este 28 Este 0 -- -- 72
2020-03-27 07:00:00 1.8 18 Este 31 Nordeste 0 -- -- 69
2020-03-27 06:00:00 2.1 18 Este 32 Este 0 -- -- 70
2020-03-27 05:00:00 2.6 17 Este 37 Este 0 -- -- 71
2020-03-27 04:00:00 3 14 Este 32 Este 0 -- -- 74
2020-03-27 03:00:00 3.7 17 Este 30 Este 0 -- -- 74
2020-03-27 02:00:00 4.2 12 Este 24 Este 0 -- -- 77
2020-03-27 01:00:00 5 6 Este 23 Nordeste 0 -- -- 94
2020-03-27 00:00:00 5 3 Sur 7 Sudoeste 0 -- -- 90
2020-03-26 23:00:00 6.8 5 Sudoeste 17 Oeste 0 -- -- 87
2020-03-26 22:00:00 8.3 10 Oeste 22 Oeste 0 -- -- 84
2020-03-26 21:00:00 9.6 13 Oeste 21 Oeste 0 -- -- 79
2020-03-26 20:00:00 11.6 9 Oeste 20 Oeste 0 -- -- 71
2020-03-26 19:00:00 15.4 8 Oeste 15 Noroeste 0 -- -- 53
2020-03-26 18:00:00 16.1 10 Noroeste 22 Noroeste 0 -- -- 34
2020-03-26 17:00:00 15.8 10 Norte 19 Oeste 0 -- -- 32
2020-03-26 16:00:00 15.1 12 Noroeste 21 Noroeste 0 -- -- 33
2020-03-26 15:00:00 14.2 9 Noroeste 21 Noroeste 0 -- -- 43
2020-03-26 14:00:00 13.3 9 Noroeste 19 Oeste 0 -- -- 57
2020-03-26 13:00:00 12.2 10 Oeste 19 Oeste 0 -- -- 59
2020-03-26 12:00:00 10.7 8 Noroeste 19 Oeste 0 -- -- 64
2020-03-26 11:00:00 9.2 8 Oeste 15 Oeste 0 -- -- 84
2020-03-26 10:00:00 6.5 7 Oeste 14 Oeste 0 -- -- 98
2020-03-26 09:00:00 5 7 Oeste 12 Oeste 0 -- -- 98
2020-03-26 08:00:00 4.1 5 Sudoeste 16 Oeste 0 -- -- 97
2020-03-26 07:00:00 1.8 3 Oeste 7 Oeste 0 -- -- 95
2020-03-26 06:00:00 2.4 0 Calma 4 Sudoeste 0 -- -- 94
2020-03-26 05:00:00 3.4 0 Calma 7 Sur 0 -- -- 93
2020-03-26 04:00:00 4.1 5 Sur 8 Sur 0 -- -- 92
2020-03-26 03:00:00 6.8 4 Oeste 12 Oeste 0 -- -- 84
2020-03-26 02:00:00 7.4 7 Noroeste 17 Oeste 0 -- -- 85
2020-03-26 01:00:00 8.3 12 Oeste 17 Noroeste 0 -- -- 83
2020-03-26 00:00:00 8.4 9 Oeste 18 Oeste 0 -- -- 83
2020-03-25 23:00:00 9.1 13 Oeste 19 Oeste 0 -- -- 83
2020-03-25 22:00:00 10.2 14 Oeste 24 Oeste 0 -- -- 80
2020-03-25 21:00:00 11.4 18 Oeste 30 Oeste 0 -- -- 79
2020-03-25 20:00:00 11.8 13 Oeste 23 Oeste 0 -- -- 71
2020-03-25 19:00:00 14.1 14 Noroeste 24 Oeste 0 -- -- 63
2020-03-25 18:00:00 16.4 14 Noroeste 22 Noroeste 0 -- -- 55
2020-03-25 17:00:00 16.7 15 Noroeste 27 Oeste 0 -- -- 52
2020-03-25 16:00:00 17.3 16 Noroeste 29 Noroeste 0 -- -- 48
2020-03-25 15:00:00 16.8 19 Noroeste 30 Noroeste 0 -- -- 51
2020-03-25 14:00:00 16 15 Noroeste 24 Noroeste 0 -- -- 57
2020-03-25 13:00:00 15.4 13 Noroeste 33 Noroeste 0 -- -- 59
2020-03-25 12:00:00 14 10 Oeste 15 Oeste 0 -- -- 66
2020-03-25 11:00:00 12.1 5 Noroeste 11 Oeste 0 -- -- 72
2020-03-25 10:00:00 9.9 4 Sudoeste 9 Sudoeste 0 -- -- 80
2020-03-25 09:00:00 8.3 6 Sudoeste 11 Sudoeste 0 -- -- 87
2020-03-25 08:00:00 5.8 6 Sudoeste 10 Sudoeste 0 -- -- 94
2020-03-25 07:00:00 4.4 3 Sudoeste 9 Sur 0 -- -- 93
2020-03-25 06:00:00 6.4 7 Sudoeste 14 Sudoeste 0 -- -- 89
2020-03-25 05:00:00 4.7 5 Sur 10 Sur 0 -- -- 94
2020-03-25 04:00:00 4.6 7 Sur 10 Sur 0 -- -- 94
2020-03-25 03:00:00 3.8 5 Sur 8 Sur 0 -- -- 92
2020-03-25 02:00:00 4.2 2 Sur 5 Este 0 -- -- 88
2020-03-25 01:00:00 4.7 3 Sudeste 4 Este 0 -- -- 88
2020-03-25 00:00:00 6.3 2 Sudeste 10 Sudeste 0 -- -- 83
2020-03-24 23:00:00 6.1 4 Sudeste 7 Este 0 -- -- 83
2020-03-24 22:00:00 7.5 6 Este 9 Nordeste 0 -- -- 79
2020-03-24 21:00:00 10.2 5 Nordeste 12 Nordeste 0 -- -- 69
2020-03-24 20:00:00 12.2 8 Nordeste 14 Nordeste 0 -- -- 64
2020-03-24 19:00:00 14.3 11 Nordeste 22 Norte 0 -- -- 55
2020-03-24 18:00:00 15.2 13 Nordeste 28 Nordeste 0 -- -- 55
2020-03-24 17:00:00 15.3 9 Nordeste 24 Nordeste 0 -- -- 54
2020-03-24 16:00:00 15.4 11 Nordeste 27 Este 0 -- -- 58
2020-03-24 15:00:00 15.1 14 Este 26 Nordeste 0 -- -- 55
2020-03-24 14:00:00 14.9 17 Este 33 Este 0 -- -- 53
2020-03-24 13:00:00 13.7 20 Este 32 Nordeste 0 -- -- 62
2020-03-24 12:00:00 12.7 17 Nordeste 32 Nordeste 0 -- -- 70
2020-03-24 11:00:00 11.8 19 Este 29 Nordeste 0 -- -- 70
2020-03-24 10:00:00 10.2 16 Nordeste 30 Nordeste 0 -- -- 78
2020-03-24 09:00:00 7.5 11 Este 23 Este 0 -- -- 85
2020-03-24 08:00:00 4.9 9 Este 15 Este 0 -- -- 92
2020-03-24 07:00:00 4.9 13 Este 22 Este 0 -- -- 90
2020-03-24 06:00:00 5 10 Este 17 Este 0 -- -- 91
2020-03-24 05:00:00 4.5 8 Este 15 Este 0 -- -- 91
2020-03-24 04:00:00 4.4 10 Este 15 Este 0 -- -- 92
2020-03-24 03:00:00 4.9 10 Este 15 Este 0 -- -- 89
2020-03-24 02:00:00 4.6 8 Este 10 Este 0 -- -- 90
2020-03-24 01:00:00 5.3 4 Este 12 Este 0 -- -- 87
2020-03-24 00:00:00 4.6 5 Este 9 Este 0 -- -- 90
2020-03-23 23:00:00 6.8 8 Este 13 Este 0 -- -- 87
2020-03-23 22:00:00 6.8 5 Sudeste 16 Nordeste 0 -- -- 84
2020-03-23 21:00:00 8.8 9 Nordeste 15 Nordeste 0 -- -- 81
2020-03-23 20:00:00 9.9 8 Nordeste 18 Nordeste 0 -- -- 75
2020-03-23 19:00:00 11.7 13 Nordeste 20 Nordeste 0 -- -- 71
2020-03-23 18:00:00 10.8 12 Este 45 Sudeste 0.4 -- -- 77
2020-03-23 17:00:00 14.4 18 Nordeste 33 Nordeste 0 -- -- 55
2020-03-23 16:00:00 14.3 17 Este 27 Este 0 -- -- 56
2020-03-23 15:00:00 13.9 17 Nordeste 28 Este 0 -- -- 59
2020-03-23 14:00:00 13.2 14 Nordeste 25 Este 0 -- -- 62
2020-03-23 13:00:00 12.6 17 Este 28 Este 0 -- -- 69
2020-03-23 12:00:00 11 8 Nordeste 22 Nordeste 0 -- -- 81
2020-03-23 11:00:00 9.1 9 Nordeste 18 Nordeste 0 -- -- 88
2020-03-23 10:00:00 6.4 9 Nordeste 20 Nordeste 0 -- -- 98
2020-03-23 09:00:00 4.9 12 Nordeste 21 Nordeste 0 -- -- 98
2020-03-23 08:00:00 3.6 5 Nordeste 11 Nordeste 0 -- -- 98
2020-03-23 07:00:00 3.1 4 Este 8 Este 0 -- -- 98
2020-03-23 06:00:00 3.2 4 Este 9 Nordeste 0 -- -- 96
2020-03-23 05:00:00 3.6 5 Este 8 Nordeste 0 -- -- 96
2020-03-23 04:00:00 2.6 0 Calma 3 Nordeste 0 -- -- 95
2020-03-23 03:00:00 4.3 4 Este 8 Este 0 -- -- 95
2020-03-23 02:00:00 4.5 0 Calma 5 Nordeste 0 -- -- 93
2020-03-23 01:00:00 6 3 Nordeste 9 Este 0 -- -- 90
2020-03-23 00:00:00 7.9 8 Este 10 Este 0 -- -- 90
2020-03-22 23:00:00 8.5 5 Este 8 Este 0.2 -- -- 90
2020-03-22 22:00:00 7.4 5 Este 11 Este 0 -- -- 94
2020-03-22 21:00:00 7.7 3 Norte 23 Este 3.4 -- -- 87
2020-03-22 20:00:00 11 9 Este 20 Este 0 -- -- 77
2020-03-22 19:00:00 12.7 4 Nordeste 18 Nordeste 0 -- -- 69
2020-03-22 18:00:00 13.1 9 Nordeste 19 Nordeste 0 -- -- 66
2020-03-22 17:00:00 12.8 8 Nordeste 20 Nordeste 0 -- -- 69
2020-03-22 16:00:00 12.2 11 Nordeste 25 Nordeste 0 -- -- 74
2020-03-22 15:00:00 11.4 11 Nordeste 19 Nordeste 0 -- -- 77
2020-03-22 14:00:00 10.9 8 Nordeste 19 Norte 0 -- -- 75
2020-03-22 13:00:00 10.1 8 Este 13 Nordeste 0 -- -- 78
2020-03-22 12:00:00 9.2 7 Nordeste 13 Nordeste 0 -- -- 86
2020-03-22 11:00:00 7.2 4 Nordeste 9 Norte 0 -- -- 99
2020-03-22 10:00:00 6 3 Norte 6 Noroeste 0 -- -- 99
2020-03-22 09:00:00 5.2 5 Norte 10 Noroeste 0.2 -- -- 99
2020-03-22 08:00:00 4.6 0 Calma 5 Norte 0 -- -- 99
2020-03-22 07:00:00 4.2 3 Nordeste 8 Nordeste 0 -- -- 99
2020-03-22 06:00:00 4 3 Norte 5 Nordeste 0 -- -- 98
2020-03-22 05:00:00 4.4 2 Este 8 Este 0 -- -- 98
2020-03-22 04:00:00 4.3 3 Este 8 Sudeste 0 -- -- 98
2020-03-22 03:00:00 2.6 6 Este 8 Este 0 -- -- 99
2020-03-22 02:00:00 1.7 0 Calma 4 Este 0 -- -- 96
2020-03-22 01:00:00 2.8 3 Este 6 Este 0 -- -- 97
2020-03-22 00:00:00 2.4 2 Este 4 Este 0 -- -- 97
2020-03-21 23:00:00 2.9 0 Calma 2 Sudeste 0 -- -- 96
2020-03-21 22:00:00 3.1 0 Calma 2 Este 0 -- -- 94
2020-03-21 21:00:00 4.7 0 Calma 6 Nordeste 0 -- -- 91
2020-03-21 20:00:00 6.7 3 Nordeste 8 Nordeste 0 -- -- 89
2020-03-21 19:00:00 8.2 3 Nordeste 9 Norte 0 -- -- 86
2020-03-21 18:00:00 8.6 5 Nordeste 10 Nordeste 0.4 -- -- 84
2020-03-21 17:00:00 8.3 4 Nordeste 7 Nordeste 0 -- -- 83
2020-03-21 16:00:00 8.5 4 Este 9 Este 0 -- -- 79
2020-03-21 15:00:00 7.8 2 Sudoeste 12 Sudoeste 0.2 -- -- 87
2020-03-21 14:00:00 8.2 7 Sur 12 Sudeste 0 -- -- 87
2020-03-21 13:00:00 7.7 6 Sur 15 Sudeste 1 -- -- 89
2020-03-21 12:00:00 6.6 11 Sudeste 22 Sur 0.8 -- -- 92
2020-03-21 11:00:00 6.5 15 Sur 26 Sur 0.4 -- -- 92
2020-03-21 10:00:00 6.5 14 Sur 25 Sur 0 -- -- 92
2020-03-21 09:00:00 6.6 11 Sudeste 18 Sudeste 0.2 -- -- 95
2020-03-21 08:00:00 6.3 3 Sur 13 Sur 0.4 -- -- 96
2020-03-21 07:00:00 6.5 5 Sur 11 Sur 1.2 -- -- 95
2020-03-21 06:00:00 6.5 2 Sur 4 Sudoeste 0.2 -- -- 94
2020-03-21 05:00:00 6.7 0 Calma 11 Sudoeste 0.4 -- -- 93
2020-03-21 04:00:00 6.9 8 Sudoeste 25 Sudoeste 0.4 -- -- 94
2020-03-21 03:00:00 8.4 7 Sudoeste 16 Sudoeste 1.4 -- -- 96
2020-03-21 02:00:00 8.6 6 Sur 13 Este 0 -- -- 97
2020-03-21 01:00:00 8.5 8 Nordeste 14 Este 0 -- -- 97
2020-03-21 00:00:00 8.2 7 Nordeste 11 Nordeste 0 -- -- 97
2020-03-20 23:00:00 8.7 0 Calma 5 Norte 0 -- -- 96
2020-03-20 22:00:00 8.8 0 Calma 31 Sudoeste 4.6 -- -- 95
2020-03-20 21:00:00 9.4 8 Sudoeste 20 Sudoeste 1 -- -- 94
2020-03-20 20:00:00 9.5 6 Sur 17 Sudeste 0.8 -- -- 94
2020-03-20 19:00:00 9.9 14 Sudeste 23 Sudeste 0.4 -- -- 91
2020-03-20 18:00:00 9.9 10 Sudeste 26 Sur 0.2 -- -- 90
2020-03-20 17:00:00 10.6 12 Sudeste 23 Sudeste 0 -- -- 90
2020-03-20 16:00:00 10.8 14 Sudeste 24 Sudeste 0 -- -- 88
2020-03-20 15:00:00 9.5 6 Sur 20 Sudeste 0.8 -- -- 93
2020-03-20 14:00:00 8.7 12 Sudeste 19 Sudeste 0.6 -- -- 93
2020-03-20 13:00:00 8.6 10 Sudeste 24 Sur 2 -- -- 93
2020-03-20 12:00:00 9.1 12 Sur 24 Sur 2.6 -- -- 95
2020-03-20 11:00:00 9.3 15 Sur 29 Sur 1.2 -- -- 92
2020-03-20 10:00:00 9.9 7 Sudoeste 11 Sudoeste 0 -- -- 85
2020-03-20 09:00:00 9.8 3 Sur 8 Sudoeste 0 -- -- 89
2020-03-20 08:00:00 9.1 0 Calma 10 Sudeste 0 -- -- 89
2020-03-20 07:00:00 9.2 7 Sudeste 10 Sudeste 0 -- -- 91
2020-03-20 06:00:00 9.3 4 Sudeste 10 Sudeste 0 -- -- 89
2020-03-20 05:00:00 8.8 6 Sudeste 9 Sudeste 0 -- -- 89
2020-03-20 04:00:00 8.4 4 Sudeste 6 Sudeste 0 -- -- 88
2020-03-20 03:00:00 8.8 2 Sur 5 Sur 0 -- -- 87
2020-03-20 02:00:00 8.8 3 Sudoeste 5 Sudoeste 0 -- -- 84
2020-03-20 01:00:00 9.1 4 Sur 10 Sudoeste 0 -- -- 83
2020-03-20 00:00:00 10.3 7 Sur 12 Sudoeste 0 -- -- 77
2020-03-19 23:00:00 10.7 6 Sudoeste 19 Sur 0 -- -- 80
2020-03-19 22:00:00 10.9 10 Sur 15 Sur 0 -- -- 83
2020-03-19 21:00:00 11.2 6 Sur 8 Sur 0 -- -- 85
2020-03-19 20:00:00 11.7 5 Sur 6 Sur 0 -- -- 83
2020-03-19 19:00:00 13.2 4 Sudeste 10 Sudeste 0 -- -- 79
2020-03-19 18:00:00 14.4 10 Sudeste 14 Sudeste 0 -- -- 73
2020-03-19 17:00:00 14.9 3 Sudeste 9 Sudeste 0 -- -- 68
2020-03-19 16:00:00 15.1 4 Sudeste 13 Este 0 -- -- 66
2020-03-19 15:00:00 15.3 4 Norte 10 Nordeste 0 -- -- 68
2020-03-19 14:00:00 15 7 Noroeste 13 Oeste 0 -- -- 69
2020-03-19 13:00:00 14.1 8 Oeste 13 Oeste 0 -- -- 74
2020-03-19 12:00:00 13.6 5 Oeste 12 Oeste 0 -- -- 71
2020-03-19 11:00:00 12.4 6 Noroeste 12 Noroeste 0 -- -- 72
2020-03-19 10:00:00 10.5 0 Calma 5 Sudoeste 0 -- -- 84
2020-03-19 09:00:00 9.7 2 Noroeste 12 Oeste 0 -- -- 86
2020-03-19 08:00:00 5.9 0 Calma 4 Sur 0 -- -- 92
2020-03-19 07:00:00 6.4 3 Sudeste 6 Sur 0 -- -- 92
2020-03-19 06:00:00 6.9 0 Calma 5 Sur 0 -- -- 90
2020-03-19 05:00:00 7.5 3 Sur 6 Sur 0 -- -- 90
2020-03-19 04:00:00 7.6 4 Sudeste 9 Este 0 -- -- 88
2020-03-19 03:00:00 8.7 0 Calma 9 Este 0 -- -- 86
2020-03-19 02:00:00 9.7 4 Sudeste 14 Sudeste 0 -- -- 82
2020-03-19 01:00:00 10.2 11 Sudeste 14 Sudeste 0 -- -- 83
2020-03-19 00:00:00 11.3 11 Este 16 Este 0 -- -- 81
2020-03-18 23:00:00 11.7 11 Este 16 Este 0 -- -- 82
2020-03-18 22:00:00 11.9 8 Este 14 Este 0 -- -- 83
2020-03-18 21:00:00 13 8 Este 17 Este 0 -- -- 81
2020-03-18 20:00:00 13.6 8 Este 14 Este 0 -- -- 77
2020-03-18 19:00:00 14.9 10 Nordeste 21 Este 0 -- -- 73
2020-03-18 18:00:00 16.1 13 Este 22 Este 0 -- -- 67
2020-03-18 17:00:00 16.8 13 Este 23 Este 0 -- -- 65
2020-03-18 16:00:00 16.4 11 Este 21 Este 0 -- -- 63
2020-03-18 15:00:00 16.2 14 Este 26 Este 0 -- -- 60
2020-03-18 14:00:00 15.8 16 Este 30 Este 0 -- -- 63
2020-03-18 13:00:00 14.7 17 Este 29 Nordeste 0 -- -- 69
2020-03-18 12:00:00 13.2 14 Este 29 Este 0 -- -- 75
2020-03-18 11:00:00 12.2 19 Este 33 Este 0 -- -- 77
2020-03-18 10:00:00 10.4 9 Nordeste 24 Este 0 -- -- 83
2020-03-18 09:00:00 8.1 13 Este 30 Este 0 -- -- 89
2020-03-18 08:00:00 7.1 17 Este 26 Este 0 -- -- 93
2020-03-18 07:00:00 6.1 4 Nordeste 20 Nordeste 0 -- -- 94
2020-03-18 06:00:00 6.9 10 Nordeste 21 Este 0 -- -- 94
2020-03-18 05:00:00 7.2 7 Nordeste 21 Este 0 -- -- 92
2020-03-18 04:00:00 8.1 15 Este 28 Este 0 -- -- 88
2020-03-18 03:00:00 8.5 14 Este 26 Este 0 -- -- 85
2020-03-18 02:00:00 8.1 9 Este 15 Este 0 -- -- 89
2020-03-18 01:00:00 8.3 10 Este 17 Este 0 -- -- 90
2020-03-18 00:00:00 7.9 5 Este 14 Este 0 -- -- 91
2020-03-17 23:00:00 9.2 9 Nordeste 14 Nordeste 0 -- -- 91
2020-03-17 22:00:00 9.1 9 Nordeste 14 Este 0 -- -- 89
2020-03-17 21:00:00 9.3 5 Nordeste 12 Nordeste 0 -- -- 82
2020-03-17 20:00:00 10.2 4 Norte 12 Este 0 -- -- 78
2020-03-17 19:00:00 13 10 Este 25 Este 0 -- -- 70
2020-03-17 18:00:00 13.4 15 Este 33 Este 0 -- -- 67
2020-03-17 17:00:00 13.5 20 Este 37 Este 0 -- -- 67
2020-03-17 16:00:00 12.2 23 Este 41 Este 0 -- -- 71
2020-03-17 15:00:00 11.6 21 Este 40 Nordeste 0 -- -- 76
2020-03-17 14:00:00 10.3 19 Este 31 Nordeste 0 -- -- 79
2020-03-17 13:00:00 8.6 20 Este 33 Este 0 -- -- 86
2020-03-17 12:00:00 9.4 19 Nordeste 36 Este 0 -- -- 81
2020-03-17 11:00:00 8.8 19 Nordeste 35 Nordeste 0 -- -- 84
2020-03-17 10:00:00 6.8 19 Nordeste 30 Nordeste 0 -- -- 90
2020-03-17 09:00:00 6 12 Nordeste 20 Nordeste 0 -- -- 92
2020-03-17 08:00:00 5.6 14 Nordeste 27 Este 0 -- -- 92
2020-03-17 07:00:00 5.1 15 Nordeste 27 Nordeste 0 -- -- 93
2020-03-17 06:00:00 4.3 13 Nordeste 22 Nordeste 0 -- -- 93
2020-03-17 05:00:00 4.7 14 Nordeste 31 Nordeste 0 -- -- 91
2020-03-17 04:00:00 5.2 17 Nordeste 39 Nordeste 0 -- -- 89
2020-03-17 03:00:00 5.1 21 Nordeste 46 Nordeste 0 -- -- 88
2020-03-17 02:00:00 5.6 27 Nordeste 53 Nordeste 0 -- -- 85
2020-03-17 01:00:00 5.2 18 Nordeste 34 Nordeste 0 -- -- 85
2020-03-17 00:00:00 4.8 19 Nordeste 35 Nordeste 0.2 -- -- 84
2020-03-16 23:00:00 5.3 20 Nordeste 40 Nordeste 0.2 -- -- 84
2020-03-16 22:00:00 5.7 16 Nordeste 40 Nordeste 0 -- -- 82
2020-03-16 21:00:00 5.8 16 Nordeste 30 Nordeste 0.4 -- -- 83
2020-03-16 20:00:00 6.4 17 Nordeste 30 Nordeste 0 -- -- 78
2020-03-16 19:00:00 6.7 8 Este 26 Nordeste 0 -- -- 79
2020-03-16 18:00:00 7.2 12 Norte 28 Noroeste 0 -- -- 72
2020-03-16 17:00:00 6.2 17 Norte 27 Norte 0.6 -- -- 80
2020-03-16 16:00:00 5.9 15 Norte 37 Noroeste 0.2 -- -- 81
2020-03-16 15:00:00 6 10 Noroeste 24 Norte 0.4 -- -- 84
2020-03-16 14:00:00 4.8 13 Nordeste 35 Nordeste 0.4 -- -- 82
2020-03-16 13:00:00 6.3 18 Norte 32 Norte 0 -- -- 73
2020-03-16 12:00:00 6.5 22 Noroeste 35 Noroeste 0 -- -- 71
2020-03-16 11:00:00 5.1 20 Noroeste 41 Noroeste 0 -- -- 81
2020-03-16 10:00:00 3.2 19 Noroeste 36 Noroeste 0 -- -- 86
2020-03-16 09:00:00 2.6 21 Noroeste 35 Noroeste 0 -- -- 87
2020-03-16 08:00:00 2.1 17 Noroeste 31 Noroeste 0 -- -- 89
2020-03-16 07:00:00 2 18 Noroeste 37 Noroeste 0.2 -- -- 91
2020-03-16 06:00:00 2.1 22 Noroeste 36 Noroeste 0 -- -- 89
2020-03-16 05:00:00 1.9 18 Noroeste 34 Noroeste 0 -- -- 89
2020-03-16 04:00:00 1.9 19 Noroeste 36 Noroeste 0 -- -- 90
2020-03-16 03:00:00 1.7 26 Noroeste 45 Noroeste 0 -- -- 91
2020-03-16 02:00:00 1.5 14 Noroeste 29 Noroeste 0 -- -- 89
2020-03-16 01:00:00 1.1 11 Noroeste 23 Oeste 0 -- -- 90
2020-03-16 00:00:00 2.5 16 Noroeste 23 Noroeste 0 -- -- 86
2020-03-15 23:00:00 2.4 12 Noroeste 24 Noroeste 0 -- -- 87
2020-03-15 22:00:00 2.6 13 Noroeste 42 Noroeste 0.2 -- -- 88
2020-03-15 21:00:00 3.2 21 Noroeste 40 Noroeste 0.6 -- -- 93
2020-03-15 20:00:00 5.1 26 Noroeste 42 Noroeste 0.4 -- -- 87
2020-03-15 19:00:00 9.6 25 Oeste 40 Noroeste 0 -- -- 75
2020-03-15 18:00:00 12.7 19 Oeste 33 Oeste 0 -- -- 55
2020-03-15 17:00:00 12.3 18 Oeste 34 Oeste 0 -- -- 62
2020-03-15 16:00:00 12.8 22 Oeste 40 Oeste 0 -- -- 67
2020-03-15 15:00:00 12 24 Oeste 48 Oeste 0 -- -- 70
2020-03-15 14:00:00 11.5 30 Oeste 44 Oeste 0 -- -- 75
2020-03-15 13:00:00 14.9 9 Oeste 20 Oeste 0 -- -- 65
2020-03-15 12:00:00 12.8 11 Oeste 27 Oeste 0 -- -- 72
2020-03-15 11:00:00 11.8 16 Oeste 27 Oeste 0 -- -- 70
2020-03-15 10:00:00 11.9 8 Sur 13 Sur 0 -- -- 63
2020-03-15 09:00:00 8 8 Sur 13 Sur 0 -- -- 68
2020-03-15 08:00:00 3.6 8 Sur 12 Sur 0 -- -- 78
2020-03-15 07:00:00 4.1 10 Sur 13 Sur 0 -- -- 76
2020-03-15 06:00:00 3.1 10 Sur 17 Sur 0 -- -- 79
2020-03-15 05:00:00 1.1 6 Sur 11 Sur 0 -- -- 84
2020-03-15 04:00:00 2.6 4 Sur 10 Sur 0 -- -- 80
2020-03-15 03:00:00 4.3 4 Sudeste 9 Sudeste 0 -- -- 70
2020-03-15 02:00:00 5.1 5 Sudeste 6 Sudeste 0 -- -- 67
2020-03-15 01:00:00 5.1 5 Sudeste 9 Sudeste 0 -- -- 69
2020-03-15 00:00:00 5.2 7 Este 10 Este 0 -- -- 70
2020-03-14 23:00:00 5.7 6 Este 9 Este 0 -- -- 69
2020-03-14 22:00:00 6.8 4 Sudeste 8 Este 0 -- -- 68
2020-03-14 21:00:00 7 3 Este -- -- 0 -- -- 68
2020-03-14 20:00:00 11.3 0 Calma 5 Norte 0 -- -- 53
2020-03-14 19:00:00 16.8 2 Norte 10 Norte 0 -- -- 46
2020-03-14 18:00:00 17.8 7 Norte 16 Noroeste 0 -- -- 41
2020-03-14 17:00:00 18.3 5 Norte 11 Este 0 -- -- 33
2020-03-14 16:00:00 17.7 4 Nordeste 14 Este 0 -- -- 34
2020-03-14 15:00:00 17 7 Este 15 Nordeste 0 -- -- 44
2020-03-14 14:00:00 15.9 6 Nordeste 18 Este 0 -- -- 53
2020-03-14 13:00:00 15 6 Este 18 Nordeste 0 -- -- 56
2020-03-14 12:00:00 13.8 11 Nordeste 19 Nordeste 0 -- -- 58
2020-03-14 11:00:00 12 9 Este 17 Este 0 -- -- 71
2020-03-14 10:00:00 9.1 9 Este 14 Nordeste 0 -- -- 79
2020-03-14 09:00:00 6.5 4 Este 17 Sudeste 0 -- -- 89
2020-03-14 08:00:00 3.9 13 Este 18 Este 0 -- -- 94
2020-03-14 07:00:00 4.6 11 Este 18 Este 0 -- -- 93
2020-03-14 06:00:00 4.3 11 Este 16 Este 0 -- -- 94
2020-03-14 05:00:00 5.2 11 Este 17 Este 0 -- -- 93
2020-03-14 04:00:00 6 12 Este 16 Este 0 -- -- 92
2020-03-14 03:00:00 6.3 12 Este 17 Este 0 -- -- 91
2020-03-14 02:00:00 6.8 5 Este 16 Este 0 -- -- 90
2020-03-14 01:00:00 7.5 11 Este 14 Este 0 -- -- 89
2020-03-14 00:00:00 7.5 10 Este 13 Este 0 -- -- 90
2020-03-13 23:00:00 7.2 0 Calma 4 Este 0 -- -- 87
2020-03-13 22:00:00 8.8 3 Este 10 Este 0 -- -- 85
2020-03-13 21:00:00 10 8 Este 12 Este 0 -- -- 82
2020-03-13 20:00:00 11.9 6 Este 11 Nordeste 0 -- -- 75
2020-03-13 19:00:00 14.3 10 Nordeste 21 Nordeste 0 -- -- 69
2020-03-13 18:00:00 15.1 10 Nordeste 21 Nordeste 0 -- -- 69
2020-03-13 17:00:00 14.8 13 Nordeste 23 Nordeste 0 -- -- 71
2020-03-13 16:00:00 14.7 13 Nordeste 26 Nordeste 0 -- -- 70
2020-03-13 15:00:00 14 13 Nordeste 24 Nordeste 0 -- -- 74
2020-03-13 14:00:00 13.1 13 Este 23 Nordeste 0 -- -- 74
2020-03-13 13:00:00 11.3 12 Nordeste 24 Nordeste 0 -- -- 80
2020-03-13 12:00:00 10.4 11 Nordeste 25 Nordeste 0 -- -- 82
2020-03-13 11:00:00 9 13 Este 23 Nordeste 0 -- -- 88
2020-03-13 10:00:00 8.1 11 Este 28 Nordeste 0 -- -- 90
2020-03-13 09:00:00 7.9 17 Este 28 Este 0 -- -- 91
2020-03-13 08:00:00 7.9 13 Este 24 Nordeste 0 -- -- 92
2020-03-13 07:00:00 7.9 12 Nordeste 25 Nordeste 0 -- -- 94
2020-03-13 06:00:00 7.5 13 Nordeste 22 Nordeste 0 -- -- 96
2020-03-13 05:00:00 6.8 6 Nordeste 14 Nordeste 0 -- -- 95
2020-03-13 04:00:00 7.8 8 Nordeste 14 Nordeste 0 -- -- 94
2020-03-13 03:00:00 8.7 9 Nordeste 18 Este 0 -- -- 92
2020-03-13 02:00:00 9.1 8 Nordeste 15 Nordeste 0 -- -- 92
2020-03-13 01:00:00 10.5 10 Nordeste 17 Nordeste 0 -- -- 89
2020-03-13 00:00:00 9.1 0 Calma 2 Este 0 -- -- 89
2020-03-12 23:00:00 11.3 0 Calma 5 Noroeste 0 -- -- 83
2020-03-12 22:00:00 11.6 3 Norte 6 Oeste 0 -- -- 87
2020-03-12 21:00:00 13 3 Oeste 5 Oeste 0 -- -- 82
2020-03-12 20:00:00 15.5 2 Noroeste 6 Noroeste 0 -- -- 73
2020-03-12 19:00:00 17.4 4 Noroeste 9 Noroeste 0 -- -- 69
2020-03-12 18:00:00 18.9 6 Noroeste 9 Noroeste 0 -- -- 61
2020-03-12 17:00:00 18.6 5 Norte 13 Norte 0 -- -- 59
2020-03-12 16:00:00 19.3 9 Noroeste 18 Noroeste 0 -- -- 61
2020-03-12 15:00:00 20.5 10 Noroeste 19 Noroeste 0 -- -- 58
2020-03-12 14:00:00 19.4 9 Noroeste 18 Oeste 0 -- -- 63
2020-03-12 13:00:00 19.9 11 Oeste 19 Oeste 0 -- -- 62
2020-03-12 12:00:00 18 6 Sudoeste 18 Sudoeste 0 -- -- 61
2020-03-12 11:00:00 18.2 12 Oeste 19 Oeste 0 -- -- 58
2020-03-12 10:00:00 15.1 8 Sur 12 Sur 0 -- -- 67
2020-03-12 09:00:00 11.6 4 Sudeste 8 Sudeste 0 -- -- 79
2020-03-12 08:00:00 9.1 5 Sudeste 8 Este 0 -- -- 81
2020-03-12 07:00:00 8.8 0 Calma 8 Este 0 -- -- 84
2020-03-12 06:00:00 8.8 4 Sudeste 6 Sudeste 0 -- -- 85
2020-03-12 05:00:00 10.1 0 Calma 4 Norte 0 -- -- 83
2020-03-12 04:00:00 11.6 2 Sudeste 8 Sur 0 -- -- 78
2020-03-12 03:00:00 11.9 5 Sur 8 Sur 0 -- -- 77
2020-03-12 02:00:00 12.5 5 Sur 10 Sur 0 -- -- 74
2020-03-12 01:00:00 12.1 5 Sur 8 Sur 0 -- -- 77
2020-03-12 00:00:00 12.4 5 Sur 7 Sur 0 -- -- 75
2020-03-11 23:00:00 13.3 4 Sur 7 Sur 0 -- -- 73
2020-03-11 22:00:00 13.4 5 Sur 8 Sur 0 -- -- 76
2020-03-11 21:00:00 14.5 4 Sur 8 Sudoeste 0 -- -- 73
2020-03-11 20:00:00 18.2 7 Sudoeste 10 Sudoeste 0 -- -- 57
2020-03-11 19:00:00 20.1 7 Sudoeste 11 Sudoeste 0 -- -- 50
2020-03-11 18:00:00 21.6 9 Oeste 16 Oeste 0 -- -- 47
2020-03-11 17:00:00 23 8 Noroeste 17 Oeste 0 -- -- 47
2020-03-11 16:00:00 23.4 6 Norte 13 Noroeste 0 -- -- 45
2020-03-11 15:00:00 23.2 4 Noroeste 11 Oeste 0 -- -- 40
2020-03-11 14:00:00 22 9 Noroeste 14 Oeste 0 -- -- 43
2020-03-11 13:00:00 21.3 8 Sudoeste 14 Sudoeste 0 -- -- 44
2020-03-11 12:00:00 19.9 8 Sudoeste 14 Oeste 0 -- -- 47
2020-03-11 11:00:00 18.1 4 Sur 9 Sur 0 -- -- 61
2020-03-11 10:00:00 14.6 5 Sudeste 10 Sur 0 -- -- 71
2020-03-11 09:00:00 10.3 3 Sur 7 Sur 0 -- -- 81
2020-03-11 08:00:00 5.7 0 Calma 0 Calma 0 -- -- 90
2020-03-11 07:00:00 6 0 Calma 0 Calma 0 -- -- 89
2020-03-11 06:00:00 6.6 0 Calma 0 Calma 0 -- -- 87
2020-03-11 05:00:00 5.6 0 Calma 0 Calma 0 -- -- 89
2020-03-11 04:00:00 6.3 0 Calma 0 Calma 0 -- -- 86
2020-03-11 03:00:00 8.2 0 Calma 13 Sur 0 -- -- 79
2020-03-11 02:00:00 9.7 10 Sur 13 Sur 0 -- -- 77
2020-03-11 01:00:00 9.5 8 Sur 12 Sur 0 -- -- 77
2020-03-11 00:00:00 9.4 8 Sur 10 Sur 0 -- -- 77
2020-03-10 23:00:00 11.7 7 Sudoeste 12 Sudoeste 0 -- -- 61
2020-03-10 22:00:00 12.2 5 Oeste 10 Noroeste 0 -- -- 54
2020-03-10 21:00:00 14.4 8 Noroeste 12 Noroeste 0 -- -- 51
2020-03-10 20:00:00 15.6 7 Noroeste 10 Noroeste 0 -- -- 63
2020-03-10 19:00:00 19.1 6 Noroeste 15 Oeste 0 -- -- 59
2020-03-10 18:00:00 20.8 11 Oeste 19 Oeste 0 -- -- 50
2020-03-10 17:00:00 21.3 12 Oeste 22 Oeste 0 -- -- 46
2020-03-10 16:00:00 20.9 9 Oeste 14 Sudoeste 0 -- -- 51
2020-03-10 15:00:00 19.8 6 Oeste 14 Sudoeste 0 -- -- 51
2020-03-10 14:00:00 18.3 8 Noroeste 15 Oeste 0 -- -- 56
2020-03-10 13:00:00 17.3 7 Oeste 12 Oeste 0 -- -- 55
2020-03-10 12:00:00 15.5 3 Sur 9 Sur 0 -- -- 56
2020-03-10 11:00:00 13.1 0 Calma 5 Sur 0 -- -- 67
2020-03-10 10:00:00 9.5 0 Calma 10 Sur 0 -- -- 87
2020-03-10 09:00:00 6.8 9 Sur 14 Sur 0 -- -- 91
2020-03-10 08:00:00 4.3 6 Sur 12 Sur 0 -- -- 95
2020-03-10 07:00:00 4 4 Sur 6 Sur 0 -- -- 94
2020-03-10 06:00:00 4.9 4 Este 9 Este 0 -- -- 93
2020-03-10 05:00:00 4.7 5 Sudeste 12 Sur 0 -- -- 93
2020-03-10 04:00:00 4.7 7 Sur 16 Sur 0 -- -- 91
2020-03-10 03:00:00 5.4 8 Sur 14 Sur 0 -- -- 86
2020-03-10 02:00:00 5.4 2 Sur 9 Sur 0 -- -- 85
2020-03-10 01:00:00 5.1 3 Sur 9 Sur 0 -- -- 87
2020-03-10 00:00:00 4.7 0 Calma 4 Oeste 0 -- -- 86
2020-03-09 23:00:00 5.7 0 Calma 4 Noroeste 0 -- -- 81
2020-03-09 22:00:00 6.5 3 Norte 5 Oeste 0 -- -- 78
2020-03-09 21:00:00 6.7 2 Sudoeste 4 Sudoeste 0 -- -- 78
2020-03-09 20:00:00 8.4 0 Calma 8 Oeste 0 -- -- 72
2020-03-09 19:00:00 12.9 6 Oeste 11 Oeste 0 -- -- 56
2020-03-09 18:00:00 13.4 7 Noroeste 15 Noroeste 0 -- -- 54
2020-03-09 17:00:00 14.2 9 Noroeste 15 Noroeste 0 -- -- 51
2020-03-09 16:00:00 13.3 6 Noroeste 17 Noroeste 0 -- -- 53
2020-03-09 15:00:00 12.8 5 Noroeste 14 Noroeste 0 -- -- 55
2020-03-09 14:00:00 11.5 9 Noroeste 18 Oeste 0 -- -- 65
2020-03-09 13:00:00 10.3 10 Noroeste 21 Oeste 0 -- -- 68
2020-03-09 12:00:00 9 10 Noroeste 19 Noroeste 0 -- -- 75
2020-03-09 11:00:00 7.9 11 Noroeste 23 Noroeste 0 -- -- 83
2020-03-09 10:00:00 6.4 12 Noroeste 19 Noroeste 0 -- -- 91
2020-03-09 09:00:00 4.3 2 Este 10 Oeste 0 -- -- 98
2020-03-09 08:00:00 2.3 3 Sur 10 Sudoeste 0 -- -- 96
2020-03-09 07:00:00 4 8 Oeste 14 Noroeste 0 -- -- 96
2020-03-09 06:00:00 4.6 12 Oeste 15 Oeste 0 -- -- 96
2020-03-09 05:00:00 4.7 8 Oeste 14 Oeste 0 -- -- 96
2020-03-09 04:00:00 5.5 9 Oeste 14 Oeste 0 -- -- 95
2020-03-09 03:00:00 5.8 5 Noroeste 13 Oeste 0 -- -- 94
2020-03-09 02:00:00 6.1 8 Noroeste 14 Oeste 0 -- -- 94
2020-03-09 01:00:00 6.5 10 Oeste 17 Oeste 0 -- -- 95
2020-03-09 00:00:00 7.5 10 Oeste 17 Oeste 0 -- -- 96
2020-03-08 23:00:00 7.4 12 Oeste 16 Oeste 0 -- -- 95
2020-03-08 22:00:00 8.3 8 Oeste 17 Oeste 0 -- -- 94
2020-03-08 21:00:00 8.8 12 Oeste 20 Oeste 0 -- -- 92
2020-03-08 20:00:00 9.2 13 Oeste 20 Oeste 0 -- -- 90
2020-03-08 19:00:00 11 11 Oeste 18 Oeste 0 -- -- 82
2020-03-08 18:00:00 11.1 10 Oeste 16 Oeste 0 -- -- 82
2020-03-08 17:00:00 10.9 12 Oeste 18 Oeste 0 -- -- 80
2020-03-08 16:00:00 10.3 9 Oeste 14 Oeste 0 -- -- 76
2020-03-08 15:00:00 9.4 7 Oeste 18 Oeste 0 -- -- 80
2020-03-08 14:00:00 8.8 9 Oeste 14 Oeste 0 -- -- 81
2020-03-08 13:00:00 7.7 7 Oeste 13 Noroeste 0 -- -- 83
2020-03-08 12:00:00 7.2 9 Oeste 16 Oeste 0 -- -- 84
2020-03-08 11:00:00 6.1 3 Oeste 10 Sudoeste 0 -- -- 91
2020-03-08 10:00:00 4.6 3 Sudoeste 8 Sur 0 -- -- 97
2020-03-08 09:00:00 2.8 8 Sur 12 Sur 0 -- -- 97
2020-03-08 08:00:00 1.4 0 Calma 8 Sur 0 -- -- 96
2020-03-08 07:00:00 2.4 2 Sur 5 Sudoeste 0 -- -- 96
2020-03-08 06:00:00 1.9 0 Calma 8 Sudoeste 0 -- -- 94
2020-03-08 05:00:00 3.6 6 Sudoeste 12 Oeste 0 -- -- 94
2020-03-08 04:00:00 4.2 5 Oeste 12 Sudoeste 0 -- -- 93
2020-03-08 03:00:00 4.6 7 Sudoeste 14 Sudoeste 0 -- -- 92
2020-03-08 02:00:00 4.3 7 Sur 10 Sudoeste 0 -- -- 84
2020-03-08 01:00:00 4.3 5 Sudoeste 12 Sur 0 -- -- 83
2020-03-08 00:00:00 4.5 8 Sur 12 Sur 0 -- -- 86
2020-03-07 23:00:00 4.7 6 Sur 8 Sur 0 -- -- 83
2020-03-07 22:00:00 5.1 3 Sudeste 5 Sudeste 0 -- -- 84
2020-03-07 21:00:00 5.4 4 Sudeste 6 Este 0 -- -- 83
2020-03-07 20:00:00 7.4 0 Calma 6 Oeste 0 -- -- 77
2020-03-07 19:00:00 13.2 3 Oeste 10 Oeste 0 -- -- 60
2020-03-07 18:00:00 14 6 Oeste 14 Noroeste 0 -- -- 56
2020-03-07 17:00:00 13.7 9 Noroeste 18 Noroeste 0 -- -- 55
2020-03-07 16:00:00 13.5 5 Noroeste 14 Oeste 0 -- -- 59
2020-03-07 15:00:00 13.1 5 Oeste 13 Oeste 0 -- -- 59
2020-03-07 14:00:00 11.7 6 Este 13 Sudeste 0 -- -- 65
2020-03-07 13:00:00 10.4 4 Nordeste 10 Nordeste 0 -- -- 68
2020-03-07 12:00:00 9.3 2 Noroeste 9 Nordeste 0 -- -- 78
2020-03-07 11:00:00 7.4 6 Noroeste 10 Noroeste 0 -- -- 84
2020-03-07 10:00:00 4.9 5 Sudoeste 12 Sudoeste 0 -- -- 89
2020-03-07 09:00:00 3.5 7 Sur 12 Sur 0 -- -- 94
2020-03-07 08:00:00 2 0 Calma 8 Sudoeste 0 -- -- 91
2020-03-07 07:00:00 2.2 5 Sudoeste 12 Oeste 0 -- -- 93
2020-03-07 06:00:00 2.1 3 Sudoeste 8 Oeste 0 -- -- 91
2020-03-07 05:00:00 2.7 4 Noroeste 15 Noroeste 0 -- -- 91
2020-03-07 04:00:00 3.4 5 Norte 18 Noroeste 0 -- -- 90
2020-03-07 03:00:00 3.3 11 Noroeste 18 Noroeste 0 -- -- 86
2020-03-07 02:00:00 3.5 10 Noroeste 17 Norte 0 -- -- 83
2020-03-07 01:00:00 4 13 Noroeste 28 Noroeste 0 -- -- 78
2020-03-07 00:00:00 4.5 19 Noroeste 30 Noroeste 0 -- -- 75
2020-03-06 23:00:00 4.8 17 Noroeste 29 Noroeste 0 -- -- 71
2020-03-06 22:00:00 5.1 19 Noroeste 31 Noroeste 0 -- -- 68
2020-03-06 21:00:00 5.9 18 Noroeste 34 Noroeste 0 -- -- 67
2020-03-06 20:00:00 6.6 21 Noroeste 35 Noroeste 0 -- -- 64
2020-03-06 19:00:00 7.8 19 Noroeste 45 Noroeste 0 -- -- 61
2020-03-06 18:00:00 9.1 24 Norte 41 Noroeste 0 -- -- 54
2020-03-06 17:00:00 9.7 27 Noroeste 44 Noroeste 0 -- -- 52
2020-03-06 16:00:00 9.7 28 Noroeste 44 Noroeste 0 -- -- 52
2020-03-06 15:00:00 9.2 19 Noroeste 44 Noroeste 0 -- -- 64
2020-03-06 14:00:00 8.5 24 Noroeste 46 Noroeste 0 -- -- 64
2020-03-06 13:00:00 8.2 26 Noroeste 43 Noroeste 0 -- -- 70
2020-03-06 12:00:00 7.3 28 Noroeste 45 Noroeste 0 -- -- 72
2020-03-06 11:00:00 6.8 23 Noroeste 42 Noroeste 0 -- -- 75
2020-03-06 10:00:00 5.2 20 Oeste 37 Oeste 0 -- -- 84
2020-03-06 09:00:00 4.7 22 Oeste 33 Oeste 0 -- -- 84
2020-03-06 08:00:00 4.7 19 Oeste 31 Oeste 0 -- -- 82
2020-03-06 07:00:00 4.4 12 Oeste 34 Oeste 0 -- -- 84
2020-03-06 06:00:00 5 20 Oeste 34 Oeste 0 -- -- 82
2020-03-06 05:00:00 5.5 19 Oeste 30 Oeste 0 -- -- 91
2020-03-06 04:00:00 5.7 16 Oeste 37 Oeste 0 -- -- 92
2020-03-06 03:00:00 5.9 19 Noroeste 32 Oeste 1.2 -- -- 95
2020-03-06 02:00:00 5.7 16 Sudoeste 27 Oeste 0 -- -- 93
2020-03-06 01:00:00 5.6 13 Oeste 24 Sudoeste 0 -- -- 92
2020-03-06 00:00:00 5.1 12 Oeste 26 Oeste 0 -- -- 91
2020-03-05 23:00:00 5.5 13 Oeste 26 Oeste 0 -- -- 85
2020-03-05 22:00:00 5.2 12 Oeste 27 Oeste 0 -- -- 86
2020-03-05 21:00:00 5.8 21 Oeste 34 Oeste 0 -- -- 83
2020-03-05 20:00:00 7.3 24 Noroeste 40 Oeste 0 -- -- 80
2020-03-05 19:00:00 8.4 21 Noroeste 45 Noroeste 0 -- -- 82
2020-03-05 18:00:00 9.2 28 Oeste 42 Noroeste 0 -- -- 74
2020-03-05 17:00:00 11.3 26 Noroeste 44 Oeste 0 -- -- 68
2020-03-05 16:00:00 11.1 32 Noroeste 54 Noroeste 0 -- -- 67
2020-03-05 15:00:00 10.9 32 Oeste 49 Oeste 0 -- -- 69
2020-03-05 14:00:00 11.3 30 Oeste 41 Oeste 0 -- -- 70
2020-03-05 13:00:00 9 23 Oeste 37 Oeste 0 -- -- 82
2020-03-05 12:00:00 9 25 Oeste 42 Oeste 0 -- -- 80
2020-03-05 11:00:00 8.4 26 Oeste 48 Oeste 0 -- -- 87
2020-03-05 10:00:00 7.7 21 Oeste 35 Oeste 0 -- -- 88
2020-03-05 09:00:00 6.5 21 Oeste 55 Noroeste 1.6 -- -- 91
2020-03-05 08:00:00 9.4 27 Oeste 59 Sudoeste 1.4 -- -- 94
2020-03-05 07:00:00 10 18 Sudoeste 35 Sudoeste 0 -- -- 93
2020-03-05 06:00:00 10.1 23 Sudoeste 39 Sudoeste 0 -- -- 91
2020-03-05 05:00:00 9.9 28 Sudoeste 52 Sudoeste 0 -- -- 91
2020-03-05 04:00:00 10.2 23 Sudoeste 38 Sur 0 -- -- 93
2020-03-05 03:00:00 10.4 14 Sudoeste 26 Sudoeste 0.2 -- -- 96
2020-03-05 02:00:00 10.6 12 Sudoeste 25 Sur 0.4 -- -- 97
2020-03-05 01:00:00 10.6 13 Sudoeste 27 Sudoeste 0.6 -- -- 96
2020-03-05 00:00:00 10.5 15 Sudoeste 24 Sudoeste 0 -- -- 96
2020-03-04 23:00:00 11.1 14 Sudoeste 26 Sudoeste 0 -- -- 92
2020-03-04 22:00:00 11.2 13 Sudoeste 28 Sudoeste 0 -- -- 91
2020-03-04 21:00:00 11.1 17 Oeste 30 Sudoeste 0 -- -- 91
2020-03-04 20:00:00 11.6 17 Oeste 32 Oeste 0 -- -- 90
2020-03-04 19:00:00 12.3 13 Oeste 24 Oeste 0 -- -- 84
2020-03-04 18:00:00 12.9 8 Oeste 23 Oeste 0 -- -- 82
2020-03-04 17:00:00 13 17 Oeste 30 Oeste 0 -- -- 81
2020-03-04 16:00:00 13.2 17 Oeste 27 Oeste 0 -- -- 79
2020-03-04 15:00:00 12.8 15 Oeste 26 Oeste 0 -- -- 81
2020-03-04 14:00:00 12.2 17 Sudoeste 26 Oeste 0 -- -- 82
2020-03-04 13:00:00 12.2 16 Oeste 26 Oeste 0 -- -- 81
2020-03-04 12:00:00 11.7 18 Oeste 27 Oeste 0 -- -- 83
2020-03-04 11:00:00 11 12 Oeste 24 Sudoeste 0 -- -- 88
2020-03-04 10:00:00 10.1 12 Oeste 20 Oeste 0 -- -- 96
2020-03-04 09:00:00 9.5 10 Sudoeste 19 Sudoeste 0 -- -- 96
2020-03-04 08:00:00 9.3 10 Oeste 21 Sudoeste 0 -- -- 96
2020-03-04 07:00:00 9.3 12 Sudoeste 28 Oeste 0 -- -- 96
2020-03-04 06:00:00 9.6 16 Oeste 27 Oeste 0 -- -- 96
2020-03-04 05:00:00 9.8 17 Sudoeste 26 Sudoeste 0 -- -- 96
2020-03-04 04:00:00 10 16 Oeste 32 Oeste 0.6 -- -- 97
2020-03-04 03:00:00 10.4 15 Oeste 31 Oeste 0.2 -- -- 97
2020-03-04 02:00:00 10.5 14 Sudoeste 30 Oeste 0 -- -- 97
2020-03-04 01:00:00 10.8 15 Oeste 35 Oeste 0 -- -- 96
2020-03-04 00:00:00 11.2 12 Oeste 25 Oeste 0 -- -- 95
2020-03-03 23:00:00 11.4 15 Oeste 28 Oeste 0 -- -- 94
2020-03-03 22:00:00 11.6 13 Oeste 24 Oeste 0 -- -- 94
2020-03-03 21:00:00 11.7 12 Oeste 30 Oeste 0 -- -- 93
2020-03-03 20:00:00 12.1 16 Oeste 32 Oeste 0 -- -- 91
2020-03-03 19:00:00 12.5 21 Oeste 36 Oeste 0 -- -- 89
2020-03-03 18:00:00 12.6 21 Oeste 39 Oeste 0 -- -- 91
2020-03-03 17:00:00 13.2 26 Oeste 47 Oeste 0 -- -- 87
2020-03-03 16:00:00 13.2 27 Oeste 46 Oeste 0 -- -- 88
2020-03-03 15:00:00 12.9 32 Oeste 58 Oeste 0 -- -- 89
2020-03-03 14:00:00 11.9 27 Oeste 46 Oeste 0 -- -- 93
2020-03-03 13:00:00 11.6 26 Oeste 45 Oeste 0 -- -- 90
2020-03-03 12:00:00 11.7 29 Oeste 55 Oeste 0 -- -- 88
2020-03-03 11:00:00 10.1 27 Oeste 48 Oeste 0 -- -- 91
2020-03-03 10:00:00 9.3 25 Oeste 51 Sudoeste 0 -- -- 93
2020-03-03 09:00:00 8 27 Oeste 49 Sudoeste 0 -- -- 94
2020-03-03 08:00:00 7.4 22 Oeste 40 Oeste 0 -- -- 92
2020-03-03 07:00:00 7.3 24 Oeste 38 Sudoeste 0 -- -- 90
2020-03-03 06:00:00 5.5 11 Sudoeste 24 Sur 0 -- -- 94
2020-03-03 05:00:00 5.1 17 Sudoeste 30 Sudoeste 0 -- -- 91
2020-03-03 04:00:00 6 17 Sudoeste 30 Sudoeste 0 -- -- 88
2020-03-03 03:00:00 5.4 13 Sudoeste 27 Sudoeste 0 -- -- 86
2020-03-03 02:00:00 4.9 10 Sudoeste 23 Sudoeste 0 -- -- 89
2020-03-03 01:00:00 4.4 15 Sudoeste 23 Sudoeste 0 -- -- 91
2020-03-03 00:00:00 4.4 12 Sudoeste 21 Sudoeste 0 -- -- 87
2020-03-02 23:00:00 5 12 Oeste 23 Oeste 0 -- -- 83
2020-03-02 22:00:00 4.2 9 Oeste 18 Oeste 0 -- -- 82
2020-03-02 21:00:00 4.3 12 Oeste 23 Noroeste 0 -- -- 78
2020-03-02 20:00:00 4.9 13 Oeste 29 Oeste 0 -- -- 74
2020-03-02 19:00:00 5.7 13 Noroeste 38 Noroeste 0 -- -- 77
2020-03-02 18:00:00 6.7 22 Noroeste 39 Noroeste 0 -- -- 70
2020-03-02 17:00:00 7.3 25 Noroeste 40 Oeste 0 -- -- 68
2020-03-02 16:00:00 6.3 21 Noroeste 39 Noroeste 0 -- -- 82
2020-03-02 15:00:00 5 19 Norte 49 Oeste 0.2 -- -- 88
2020-03-02 14:00:00 6.8 28 Noroeste 57 Oeste 0.2 -- -- 78
2020-03-02 13:00:00 8.2 35 Noroeste 59 Noroeste 0 -- -- 68
2020-03-02 12:00:00 7.5 24 Oeste 47 Oeste 0 -- -- 75
2020-03-02 11:00:00 7.1 22 Oeste 45 Oeste 0 -- -- 83
2020-03-02 10:00:00 5.5 23 Oeste 41 Noroeste 0.8 -- -- 92
2020-03-02 09:00:00 5.7 17 Oeste 51 Oeste 0 -- -- 89
2020-03-02 08:00:00 6.6 21 Oeste 59 Oeste 0 -- -- 83
2020-03-02 07:00:00 7.5 32 Oeste 80 Noroeste 0 -- -- 79
2020-03-02 06:00:00 8.5 40 Oeste 65 Oeste 0 -- -- 78
2020-03-02 05:00:00 10.1 36 Oeste 73 Oeste 0.6 -- -- 84
2020-03-02 04:00:00 10.8 36 Oeste 67 Sudoeste 0.4 -- -- 94
2020-03-02 03:00:00 10.5 35 Sudoeste 65 Oeste 0.4 -- -- 95
2020-03-02 02:00:00 9.8 32 Sudoeste 60 Sudoeste 0.8 -- -- 94
2020-03-02 01:00:00 9.7 30 Sudoeste 52 Sudoeste 1 -- -- 94
2020-03-02 00:00:00 9.6 22 Sudoeste 60 Sudoeste 0.8 -- -- 94
2020-03-01 23:00:00 10.1 33 Sudoeste 62 Sudoeste 1.4 -- -- 91
2020-03-01 22:00:00 10.3 26 Sudoeste 50 Sudoeste 0.2 -- -- 92
2020-03-01 21:00:00 10.5 24 Sudoeste 45 Sudoeste 1 -- -- 94
2020-03-01 20:00:00 10.3 19 Oeste 48 Sudoeste 3.2 -- -- 94
2020-03-01 19:00:00 11.3 23 Sudoeste 40 Sudoeste 0.6 -- -- 85
2020-03-01 18:00:00 12.2 22 Oeste 51 Sudoeste 0 -- -- 76
2020-03-01 17:00:00 12.6 28 Oeste 59 Oeste 0 -- -- 75
2020-03-01 16:00:00 13.7 33 Oeste 54 Oeste 0 -- -- 68
2020-03-01 15:00:00 13.1 29 Oeste 49 Oeste 0 -- -- 71
2020-03-01 14:00:00 12.2 30 Oeste 51 Oeste 0 -- -- 87
2020-03-01 13:00:00 12 26 Oeste 45 Oeste 0 -- -- 83
2020-03-01 12:00:00 11.5 21 Oeste 38 Oeste 2.2 -- -- 89
2020-03-01 11:00:00 10.4 18 Sudoeste 36 Sudoeste 0.4 -- -- 94
2020-03-01 10:00:00 9.1 15 Sudoeste 29 Sudoeste 0.8 -- -- 93
2020-03-01 09:00:00 7.8 16 Sudoeste 31 Sudoeste 0.2 -- -- 90
2020-03-01 08:00:00 7.5 18 Sudoeste 34 Sudoeste 0.2 -- -- 89
2020-03-01 07:00:00 7.3 18 Sudoeste 33 Sudoeste 0 -- -- 93
2020-03-01 06:00:00 7 20 Sudoeste 41 Sudoeste 0 -- -- 95
2020-03-01 05:00:00 6.6 21 Sudoeste 35 Sudoeste 0 -- -- 92
2020-03-01 04:00:00 6.7 14 Sudoeste 27 Sudoeste 0 -- -- 88
2020-03-01 03:00:00 6.5 15 Sudoeste 35 Sudoeste 0 -- -- 92
2020-03-01 02:00:00 6.5 20 Oeste 32 Oeste 0.6 -- -- 94
2020-03-01 01:00:00 6.7 12 Sudoeste 20 Oeste 0 -- -- 95
2020-03-01 00:00:00 6.9 13 Sudoeste 27 Oeste 0 -- -- 93
2020-02-29 23:00:00 6.9 15 Oeste 30 Sudoeste 0 -- -- 91
2020-02-29 22:00:00 6.9 18 Oeste 36 Oeste 0 -- -- 86
2020-02-29 21:00:00 7.3 19 Oeste 38 Oeste 0 -- -- 89
2020-02-29 20:00:00 7.9 17 Oeste 35 Sudoeste 0 -- -- 82
2020-02-29 19:00:00 8.6 17 Sudoeste 34 Sudoeste 0 -- -- 75
2020-02-29 18:00:00 9.3 22 Oeste 42 Oeste 0 -- -- 73
2020-02-29 17:00:00 9.5 21 Oeste 49 Oeste 0 -- -- 68
2020-02-29 16:00:00 10.6 31 Oeste 59 Oeste 0 -- -- 67
2020-02-29 15:00:00 10.6 29 Oeste 57 Oeste 0 -- -- 71
2020-02-29 14:00:00 10.5 31 Oeste 48 Oeste 0 -- -- 76
2020-02-29 13:00:00 9.7 28 Sudoeste 49 Oeste 0 -- -- 91
2020-02-29 12:00:00 9.9 27 Oeste 47 Oeste 1.6 -- -- 95
2020-02-29 11:00:00 9.9 24 Sudoeste 49 Sudoeste 0.8 -- -- 95
2020-02-29 10:00:00 9.2 26 Sudoeste 48 Sudoeste 0.4 -- -- 95
2020-02-29 09:00:00 8.3 20 Sudoeste 45 Sudoeste 0.4 -- -- 94
2020-02-29 08:00:00 8.3 25 Sudoeste 52 Sudoeste 0 -- -- 89
2020-02-29 07:00:00 7.5 25 Sudoeste 43 Sudoeste 0 -- -- 91
2020-02-29 06:00:00 6.5 23 Sudoeste 46 Sur 0 -- -- 90
2020-02-29 05:00:00 5.9 16 Sudoeste 28 Sudoeste 0 -- -- 84
2020-02-29 04:00:00 5.6 9 Sur 17 Oeste 0 -- -- 89
2020-02-29 03:00:00 6.3 13 Sudoeste 25 Oeste 0 -- -- 89
2020-02-29 02:00:00 4.8 4 Oeste 15 Sudoeste 0 -- -- 85
2020-02-29 01:00:00 8 10 Sudoeste 18 Sudoeste 0 -- -- 77
2020-02-29 00:00:00 5.9 5 Sudeste 10 Sudeste 0 -- -- 83